.
WxDataArchive / Data Records for 2014-08-16
2014-08-15 August 2014 2014-08-17

Data Records for Saturday, 16 August 2014

Time	Temp	Chill	HIndex	Humid	Dewpt	 Wind 	HiWind	WindDir	Rain 	Barom
-----	----	-----	------	-----	-----	------	------	-------	-----	-----
00:00	56.0	56.0	56.0	80	49.9	0	0	---	0.00	29.980 
00:05	55.9	55.9	55.9	81	50.2	0	0	---	0.00	29.980 
00:10	55.7	55.7	55.7	81	50.0	0	0	---	0.00	29.980 
00:15	55.7	55.7	55.7	82	50.3	0	0	---	0.00	29.980 
00:20	55.6	55.6	55.6	82	50.2	0	0	---	0.00	29.980 
00:25	55.4	55.4	55.4	82	50.0	0	0	---	0.00	29.980 
00:30	55.3	55.3	55.3	82	49.9	0	0	---	0.00	29.979 
00:35	55.3	55.3	55.3	82	49.9	0	0	---	0.00	29.979 
00:40	55.1	55.1	55.1	82	49.7	0	0	---	0.00	29.979 
00:45	55.0	55.0	55.0	83	49.9	0	0	---	0.00	29.980 
00:50	54.8	54.8	54.8	83	49.7	0	0	---	0.00	29.980 
00:55	54.7	54.7	54.7	83	49.6	0	0	---	0.00	29.980 
01:00	54.7	54.7	54.7	83	49.6	0	0	---	0.00	29.982 
01:05	54.5	54.5	54.5	83	49.4	0	0	---	0.00	29.982 
01:10	54.4	54.4	54.4	83	49.3	0	0	---	0.00	29.982 
01:15	54.4	54.4	54.4	83	49.3	0	0	---	0.00	29.981 
01:20	54.2	54.2	54.2	84	49.5	0	0	---	0.00	29.981 
01:25	54.1	54.1	54.1	83	49.1	0	0	---	0.00	29.981 
01:30	54.1	54.1	54.1	84	49.4	0	0	---	0.00	29.980 
01:35	53.9	53.9	53.9	84	49.2	0	0	---	0.00	29.980 
01:40	53.8	53.8	53.8	84	49.1	0	0	---	0.00	29.980 
01:45	53.6	53.6	53.6	84	48.9	0	0	---	0.00	29.976 
01:50	53.5	53.5	53.5	84	48.8	0	0	---	0.00	29.976 
01:55	53.5	53.5	53.5	84	48.8	0	0	---	0.00	29.976 
02:00	53.5	53.5	53.5	85	49.1	0	0	---	0.00	29.972 
02:05	53.3	53.3	53.3	85	48.9	0	0	---	0.00	29.972 
02:10	53.2	53.2	53.2	85	48.8	0	0	---	0.00	29.972 
02:15	53.2	53.2	53.2	85	48.8	0	0	---	0.00	29.968 
02:20	53.3	53.3	53.3	85	48.9	0	0	---	0.00	29.968 
02:25	53.3	53.3	53.3	85	48.9	0	0	---	0.00	29.968 
02:30	53.5	53.5	53.5	85	49.1	0	0	---	0.00	29.961 
02:35	53.6	53.6	53.6	85	49.2	0	0	---	0.00	29.961 
02:40	53.6	53.6	53.6	84	48.9	0	0	---	0.00	29.961 
02:45	53.6	53.6	53.6	84	48.9	0	0	---	0.00	29.959 
02:50	53.6	53.6	53.6	84	48.9	0	0	---	0.00	29.959 
02:55	53.6	53.6	53.6	84	48.9	0	0	---	0.00	29.959 
03:00	53.6	53.6	53.6	83	48.6	0	0	---	0.00	29.955 
03:05	53.6	53.6	53.6	83	48.6	0	0	---	0.00	29.955 
03:10	53.8	53.8	53.8	82	48.4	0	0	---	0.00	29.955 
03:15	53.8	53.8	53.8	82	48.4	0	0	---	0.00	29.950 
03:20	53.8	53.8	53.8	82	48.4	0	0	---	0.00	29.950 
03:25	53.8	53.8	53.8	82	48.4	0	0	---	0.00	29.950 
03:30	53.6	53.6	53.6	82	48.2	0	0	---	0.00	29.949 
03:35	53.5	53.5	53.5	82	48.1	0	0	---	0.00	29.949 
03:40	53.3	53.3	53.3	82	47.9	0	0	---	0.00	29.949 
03:45	53.2	53.2	53.2	82	47.8	0	0	---	0.00	29.950 
03:50	53.1	53.1	53.1	82	47.8	0	0	---	0.00	29.950 
03:55	52.9	52.9	52.9	83	47.9	0	0	---	0.00	29.950 
04:00	52.8	52.8	52.8	83	47.8	0	0	---	0.00	29.947 
04:05	52.6	52.6	52.6	83	47.6	0	0	---	0.00	29.947 
04:10	52.5	52.5	52.5	83	47.5	0	0	---	0.00	29.947 
04:15	52.3	52.3	52.3	84	47.6	0	0	---	0.00	29.947 
04:20	52.2	52.2	52.2	84	47.5	0	0	---	0.00	29.947 
04:25	52.0	52.0	52.0	84	47.3	0	0	---	0.00	29.947 
04:30	51.9	51.9	51.9	84	47.2	0	0	---	0.00	29.945 
04:35	51.9	51.9	51.9	84	47.2	0	0	---	0.00	29.945 
04:40	51.6	51.6	51.6	85	47.2	0	0	---	0.00	29.945 
04:45	51.6	51.6	51.6	85	47.2	0	0	---	0.00	29.944 
04:50	51.4	51.4	51.4	85	47.0	0	0	---	0.00	29.944 
04:55	51.3	51.3	51.3	86	47.3	0	0	---	0.00	29.944 
05:00	51.1	51.1	51.1	86	47.1	0	0	---	0.00	29.944 
05:05	51.1	51.1	51.1	86	47.1	0	0	---	0.00	29.944 
05:10	51.0	51.0	51.0	87	47.3	0	0	---	0.00	29.944 
05:15	50.8	50.8	50.8	87	47.1	0	0	---	0.00	29.939 
05:20	50.8	50.8	50.8	87	47.1	0	0	---	0.00	29.939 
05:25	50.7	50.7	50.7	88	47.3	0	0	---	0.00	29.939 
05:30	50.5	50.5	50.5	88	47.1	0	0	---	0.00	29.938 
05:35	50.4	50.4	50.4	88	47.0	0	0	---	0.00	29.938 
05:40	50.4	50.4	50.4	88	47.0	0	0	---	0.00	29.938 
05:45	50.2	50.2	50.2	88	46.8	0	0	---	0.00	29.943 
05:50	50.1	50.1	50.1	88	46.7	0	0	---	0.00	29.943 
05:55	49.9	49.9	49.9	88	46.5	0	0	---	0.00	29.943 
06:00	49.8	49.8	49.8	89	46.7	0	0	---	0.00	29.950 
06:05	49.8	49.8	49.8	89	46.7	0	0	---	0.00	29.950 
06:10	49.6	49.6	49.6	89	46.5	0	0	---	0.00	29.950 
06:15	49.5	49.5	49.5	89	46.4	0	0	---	0.00	29.953 
06:20	49.5	49.5	49.5	90	46.7	0	0	---	0.00	29.953 
06:25	49.4	49.4	49.4	90	46.6	0	0	---	0.00	29.953 
06:30	49.2	49.2	49.2	90	46.4	0	0	---	0.00	29.957 
06:35	49.2	49.2	49.2	90	46.4	0	0	---	0.00	29.957 
06:40	49.2	49.2	49.2	90	46.4	0	0	---	0.00	29.957 
06:45	49.1	49.1	49.1	90	46.3	0	0	---	0.00	29.959 
06:50	48.9	48.9	48.9	90	46.1	0	0	---	0.00	29.959 
06:55	48.9	48.9	48.9	90	46.1	0	0	---	0.00	29.959 
07:00	48.9	48.9	48.9	91	46.4	0	0	---	0.00	29.962 
07:05	48.9	48.9	48.9	91	46.4	0	0	---	0.00	29.962 
07:10	48.9	48.9	48.9	91	46.4	0	0	---	0.00	29.962 
07:15	48.9	48.9	48.9	91	46.4	0	0	---	0.00	29.961 
07:20	48.9	48.9	48.9	91	46.4	0	0	---	0.00	29.961 
07:25	49.1	49.1	49.1	92	46.9	0	0	---	0.00	29.961 
07:30	49.4	49.4	49.4	92	47.2	0	0	---	0.00	29.965 
07:35	49.5	49.5	49.5	92	47.3	0	0	---	0.00	29.965 
07:40	49.6	49.6	49.6	92	47.4	0	0	---	0.00	29.965 
07:45	49.9	49.9	49.9	92	47.7	0	0	---	0.00	29.957 
07:50	50.2	50.2	50.2	92	48.0	0	0	---	0.00	29.957 
07:55	50.8	50.8	50.8	92	48.6	0	0	---	0.00	29.957 
08:00	51.6	51.6	51.6	92	49.4	0	0	---	0.00	29.958 
08:05	52.6	52.6	52.6	93	50.6	0	0	---	0.00	29.958 
08:10	53.6	53.6	53.6	93	51.6	0	0	---	0.00	29.958 
08:15	55.1	55.1	55.1	92	52.8	0	0	---	0.00	29.955 
08:20	56.5	56.5	56.5	89	53.3	0	0	---	0.00	29.955 
08:25	58.1	58.1	58.1	82	52.6	0	0	---	0.00	29.955 
08:30	59.5	59.5	59.5	77	52.3	0	0	---	0.00	29.947 
08:35	60.7	60.7	60.7	76	53.1	0	0	---	0.00	29.947 
08:40	62.0	62.0	62.0	69	51.7	0	0	---	0.00	29.947 
08:45	62.9	62.9	62.9	66	51.4	0	0	---	0.00	29.936 
08:50	63.7	63.7	63.7	65	51.7	0	1	270	0.00	29.936 
08:55	64.2	64.2	64.2	63	51.3	0	1	270	0.00	29.936 
09:00	64.2	64.2	64.2	63	51.3	0	1	270	0.00	29.938 
09:05	64.0	64.0	64.0	60	49.8	0	1	270	0.00	29.938 
09:10	64.2	64.2	64.2	62	50.9	0	1	270	0.00	29.938 
09:15	64.3	64.3	64.3	62	51.0	0	1	270	0.00	29.940 
09:20	64.5	64.5	64.5	61	50.7	0	1	270	0.00	29.940 
09:25	64.8	64.8	64.8	62	51.5	0	1	270	0.00	29.940 
09:30	65.3	65.3	65.3	62	51.9	0	0	---	0.00	29.941 
09:35	66.0	66.0	66.0	60	51.7	0	2	270	0.00	29.941 
09:40	66.3	66.3	66.3	59	51.5	0	1	270	0.00	29.941 
09:45	66.6	66.6	66.6	57	50.9	0	2	270	0.00	29.939 
09:50	67.1	67.1	67.1	56	50.9	0	1	270	0.00	29.939 
09:55	67.6	67.6	67.6	56	51.3	0	1	270	0.00	29.939 
10:00	68.1	68.1	68.1	58	52.8	0	1	270	0.00	29.933 
10:05	68.4	68.4	68.4	54	51.1	1	3	270	0.00	29.933 
10:10	68.8	68.8	68.8	54	51.5	0	2	270	0.00	29.933 
10:15	69.3	69.3	69.3	54	51.9	0	3	270	0.00	29.937 
10:20	69.9	69.9	69.9	56	53.5	0	1	270	0.00	29.937 
10:25	70.8	70.8	70.8	55	53.8	0	1	270	0.00	29.937 
10:30	71.5	71.5	71.5	54	54.0	0	1	270	0.00	29.937 
10:35	72.0	72.0	72.0	53	53.9	0	1	270	0.00	29.937 
10:40	72.1	72.1	72.1	54	54.5	0	2	270	0.00	29.937 
10:45	72.5	72.5	72.5	54	54.9	0	1	270	0.00	29.934 
10:50	73.0	73.0	73.0	54	55.4	0	2	270	0.00	29.934 
10:55	73.0	73.0	73.0	54	55.4	1	3	270	0.00	29.934 
11:00	73.2	73.2	73.2	58	57.5	1	3	270	0.00	29.934 
11:05	73.7	73.7	73.7	58	58.0	0	2	270	0.00	29.934 
11:10	73.9	73.9	73.9	56	57.2	1	3	270	0.00	29.934 
11:15	74.0	74.0	74.0	58	58.3	1	3	292	0.00	29.937 
11:20	74.2	74.2	74.2	57	58.0	0	2	292	0.00	29.937 
11:25	74.6	74.6	74.6	57	58.3	0	1	292	0.00	29.937 
11:30	75.1	75.1	77.5	58	59.3	0	1	292	0.00	29.937 
11:35	75.4	75.4	77.7	58	59.6	0	1	292	0.00	29.937 
11:40	76.1	76.1	78.1	58	60.2	0	3	112	0.00	29.937 
11:45	76.1	76.1	78.1	57	59.7	1	4	270	0.00	29.937 
11:50	76.1	76.1	78.1	57	59.7	1	4	292	0.00	29.937 
11:55	76.0	76.0	78.1	57	59.6	1	4	315	0.00	29.937 
12:00	76.3	76.3	78.2	58	60.4	0	3	315	0.00	29.936 
12:05	76.5	76.5	78.4	58	60.6	0	3	315	0.00	29.936 
12:10	76.7	76.7	78.5	58	60.8	0	2	315	0.00	29.936 
12:15	76.8	76.8	78.6	59	61.4	1	4	45	0.00	29.935 
12:20	76.8	76.8	78.6	58	60.9	1	3	270	0.00	29.935 
12:25	76.5	76.5	78.4	59	61.1	0	3	270	0.00	29.935 
12:30	76.7	76.7	78.5	60	61.7	0	1	270	0.00	29.932 
12:35	76.7	76.7	78.5	59	61.3	1	4	292	0.00	29.932 
12:40	76.5	76.5	78.4	61	62.0	1	3	90	0.00	29.932 
12:45	76.3	76.3	78.2	60	61.4	1	3	248	0.00	29.932 
12:50	76.5	76.5	78.4	61	62.0	1	4	270	0.00	29.932 
12:55	76.5	76.5	78.4	61	62.0	1	4	270	0.00	29.932 
13:00	76.3	76.3	78.2	61	61.8	1	5	270	0.00	29.924 
13:05	76.8	76.8	78.6	63	63.2	1	3	248	0.00	29.924 
13:10	77.2	77.2	79.0	61	62.7	1	3	248	0.00	29.924 
13:15	77.2	77.2	79.0	61	62.7	1	4	270	0.00	29.924 
13:20	76.8	76.8	78.6	61	62.3	2	5	270	0.00	29.924 
13:25	77.0	77.0	78.8	63	63.4	1	3	292	0.00	29.924 
13:30	77.6	77.6	79.4	63	64.0	1	4	292	0.00	29.917 
13:35	78.1	78.1	79.9	64	64.9	0	2	90	0.00	29.917 
13:40	78.5	78.5	80.3	62	64.4	1	3	270	0.00	29.917 
13:45	78.3	78.3	80.1	62	64.2	1	4	270	0.00	29.915 
13:50	77.7	77.7	79.5	63	64.1	2	4	270	0.00	29.915 
13:55	77.0	77.0	78.8	66	64.8	1	3	270	0.00	29.915 
14:00	76.8	76.8	78.6	66	64.6	0	2	270	0.00	29.916 
14:05	76.8	76.8	78.6	66	64.6	1	2	270	0.00	29.916 
14:10	76.8	76.8	78.6	66	64.6	1	4	270	0.00	29.916 
14:15	76.5	76.5	78.3	68	65.1	1	4	270	0.00	29.918 
14:20	76.5	76.5	78.2	69	65.6	0	3	248	0.00	29.918 
14:25	76.5	76.5	78.2	69	65.6	0	2	248	0.00	29.918 
14:30	76.3	76.3	78.0	68	64.9	2	4	270	0.00	29.917 
14:35	75.8	75.8	77.4	70	65.3	0	2	270	0.00	29.917 
14:40	75.4	75.4	77.0	71	65.3	0	4	248	0.00	29.917 
14:45	75.4	75.4	76.9	72	65.7	0	1	248	0.00	29.918 
14:50	75.4	75.4	76.9	72	65.7	1	2	248	0.00	29.918 
14:55	75.6	75.6	77.0	73	66.3	0	2	248	0.00	29.918 
15:00	76.3	76.3	77.9	72	66.6	0	2	248	0.00	29.911 
15:05	77.4	77.4	79.3	72	67.6	0	3	248	0.00	29.911 
15:10	77.9	77.9	79.9	69	66.9	0	1	248	0.00	29.911 
15:15	77.9	77.9	79.8	67	66.0	1	3	270	0.00	29.912 
15:20	77.9	77.9	79.8	68	66.5	1	2	270	0.00	29.912 
15:25	77.9	77.9	79.8	67	66.0	0	1	270	0.00	29.912 
15:30	77.7	77.7	79.6	66	65.4	1	3	270	0.00	29.910 
15:35	77.4	77.4	79.2	67	65.6	1	4	270	0.00	29.910 
15:40	77.6	77.6	79.5	68	66.2	0	2	270	0.00	29.910 
15:45	77.6	77.6	79.5	69	66.6	0	1	270	0.00	29.903 
15:50	77.4	77.4	79.2	69	66.4	1	3	270	0.00	29.903 
15:55	77.6	77.6	79.5	67	65.8	1	3	270	0.00	29.903 
16:00	77.4	77.4	79.2	68	66.0	0	2	270	0.00	29.900 
16:05	77.2	77.2	79.0	69	66.2	0	2	270	0.00	29.900 
16:10	77.4	77.4	79.2	69	66.4	0	3	270	0.00	29.900 
16:15	77.4	77.4	79.2	68	66.0	1	3	270	0.00	29.901 
16:20	77.4	77.4	79.2	68	66.0	2	4	270	0.00	29.901 
16:25	76.8	76.8	78.6	67	65.0	2	4	270	0.00	29.901 
16:30	76.5	76.5	78.2	69	65.6	1	4	270	0.00	29.902 
16:35	76.5	76.5	78.2	70	66.0	1	5	292	0.00	29.902 
16:40	76.5	76.5	78.2	69	65.6	2	5	292	0.00	29.902 
16:45	76.3	76.3	78.0	70	65.8	2	5	292	0.00	29.902 
16:50	76.5	76.5	78.2	71	66.4	1	3	292	0.00	29.902 
16:55	76.8	76.8	78.5	70	66.3	1	3	315	0.00	29.902 
17:00	77.2	77.2	79.0	70	66.6	1	4	315	0.00	29.898 
17:05	77.4	77.4	79.2	69	66.4	1	3	292	0.00	29.898 
17:10	77.6	77.6	79.5	68	66.2	0	1	292	0.00	29.898 
17:15	77.9	77.9	79.8	68	66.5	0	2	292	0.00	29.892 
17:20	78.1	78.1	80.0	67	66.2	1	4	270	0.00	29.892 
17:25	78.5	78.5	80.5	66	66.2	1	3	270	0.00	29.892 
17:30	79.2	79.2	81.5	67	67.3	0	3	270	0.00	29.893 
17:35	79.6	79.6	81.7	64	66.3	1	5	292	0.00	29.893 
17:40	79.6	79.6	81.7	64	66.3	1	5	270	0.00	29.893 
17:45	79.2	79.2	81.3	65	66.4	0	2	270	0.00	29.889 
17:50	79.0	79.0	81.0	65	66.2	0	2	270	0.00	29.889 
17:55	79.0	79.0	81.1	66	66.6	0	2	270	0.00	29.889 
18:00	78.8	78.8	80.8	65	66.0	1	2	270	0.00	29.888 
18:05	78.8	78.8	80.7	64	65.6	1	3	270	0.00	29.888 
18:10	78.5	78.5	80.4	65	65.7	1	4	270	0.00	29.888 
18:15	78.1	78.1	80.0	65	65.4	1	4	270	0.00	29.888 
18:20	77.9	77.9	79.8	66	65.6	0	2	270	0.00	29.888 
18:25	77.9	77.9	79.8	67	66.0	0	1	270	0.00	29.888 
18:30	77.9	77.9	79.8	67	66.0	0	1	270	0.00	29.887 
18:35	77.9	77.9	79.8	68	66.5	0	1	270	0.00	29.887 
18:40	77.9	77.9	79.9	69	66.9	0	2	270	0.00	29.887 
18:45	77.7	77.7	79.6	70	67.1	0	3	45	0.00	29.886 
18:50	77.6	77.6	79.5	71	67.4	0	2	0	0.00	29.886 
18:55	77.6	77.6	79.5	71	67.4	0	1	0	0.00	29.886 
19:00	77.4	77.4	79.3	71	67.2	0	2	0	0.00	29.886 
19:05	77.4	77.4	79.3	71	67.2	0	1	0	0.00	29.886 
19:10	77.2	77.2	79.0	71	67.0	0	1	0	0.00	29.886 
19:15	77.0	77.0	78.7	72	67.3	0	2	0	0.00	29.887 
19:20	76.8	76.8	78.5	71	66.7	0	1	0	0.00	29.887 
19:25	76.8	76.8	78.5	71	66.7	0	1	0	0.00	29.887 
19:30	76.7	76.7	78.4	72	67.0	0	1	0	0.00	29.888 
19:35	76.5	76.5	78.1	73	67.2	0	3	0	0.00	29.888 
19:40	76.1	76.1	77.6	73	66.8	0	1	0	0.00	29.888 
19:45	76.0	76.0	77.4	74	67.1	0	1	0	0.00	29.890 
19:50	75.8	75.8	77.2	74	66.9	0	1	0	0.00	29.890 
19:55	75.6	75.6	76.9	75	67.1	0	1	0	0.00	29.890 
20:00	75.4	75.4	76.5	76	67.3	0	1	0	0.00	29.891 
20:05	75.4	75.4	76.5	76	67.3	0	1	0	0.00	29.891 
20:10	75.3	75.3	76.4	76	67.2	0	1	0	0.00	29.891 
20:15	75.1	75.1	76.1	77	67.4	0	1	0	0.00	29.886 
20:20	74.9	74.9	74.9	77	67.2	0	1	0	0.00	29.886 
20:25	74.7	74.7	74.7	77	67.0	0	1	0	0.00	29.886 
20:30	74.7	74.7	74.7	78	67.4	0	1	0	0.00	29.884 
20:35	74.6	74.6	74.6	78	67.3	0	1	0	0.00	29.884 
20:40	74.4	74.4	74.4	79	67.4	0	1	0	0.00	29.884 
20:45	74.2	74.2	74.2	80	67.6	0	1	0	0.00	29.889 
20:50	74.0	74.0	74.0	80	67.4	0	1	0	0.00	29.889 
20:55	73.9	73.9	73.9	80	67.3	0	3	0	0.00	29.889 
21:00	73.7	73.7	73.7	81	67.5	0	3	0	0.00	29.892 
21:05	73.5	73.5	73.5	81	67.3	0	2	0	0.00	29.892 
21:10	73.3	73.3	73.3	81	67.1	0	1	0	0.00	29.892 
21:15	73.2	73.2	73.2	82	67.4	0	1	0	0.00	29.897 
21:20	73.2	73.2	73.2	82	67.4	0	1	0	0.00	29.897 
21:25	73.0	73.0	73.0	82	67.2	0	1	0	0.00	29.897 
21:30	72.8	72.8	72.8	83	67.3	0	1	0	0.00	29.898 
21:35	72.8	72.8	72.8	83	67.3	0	1	0	0.00	29.898 
21:40	72.7	72.7	72.7	84	67.6	0	1	0	0.00	29.898 
21:45	72.5	72.5	72.5	84	67.4	0	1	0	0.00	29.903 
21:50	72.5	72.5	72.5	84	67.4	0	0	---	0.00	29.903 
21:55	72.3	72.3	72.3	85	67.5	0	0	---	0.00	29.903 
22:00	72.1	72.1	72.1	85	67.3	0	1	0	0.00	29.904 
22:05	72.1	72.1	72.1	85	67.3	0	0	---	0.00	29.904 
22:10	72.0	72.0	72.0	85	67.2	0	0	---	0.00	29.904 
22:15	71.8	71.8	71.8	86	67.4	0	0	---	0.00	29.904 
22:20	71.8	71.8	71.8	86	67.4	0	0	---	0.00	29.904 
22:25	71.6	71.6	71.6	86	67.2	0	0	---	0.00	29.904 
22:30	71.5	71.5	71.5	87	67.4	0	0	---	0.00	29.909 
22:35	71.5	71.5	71.5	87	67.4	0	0	---	0.00	29.909 
22:40	71.5	71.5	71.5	87	67.4	0	0	---	0.00	29.909 
22:45	71.5	71.5	71.5	88	67.7	0	1	0	0.00	29.906 
22:50	71.5	71.5	71.5	88	67.7	0	0	---	0.00	29.906 
22:55	71.5	71.5	71.5	88	67.7	0	1	0	0.00	29.906 
23:00	71.5	71.5	71.5	88	67.7	0	1	0	0.00	29.908 
23:05	71.5	71.5	71.5	88	67.7	0	2	0	0.00	29.908 
23:10	71.3	71.3	71.3	88	67.6	0	0	---	0.00	29.908 
23:15	71.3	71.3	71.3	88	67.6	0	1	0	0.00	29.910 
23:20	71.5	71.5	71.5	88	67.7	0	1	0	0.00	29.910 
23:25	71.5	71.5	71.5	88	67.7	0	1	0	0.00	29.910 
23:30	71.6	71.6	71.6	88	67.8	0	2	0	0.00	29.911 
23:35	71.6	71.6	71.6	88	67.8	0	3	0	0.00	29.911 
23:40	71.8	71.8	71.8	88	68.0	0	1	0	0.00	29.911 
23:45	71.8	71.8	71.8	88	68.0	0	1	0	0.00	29.912 
23:50	71.8	71.8	71.8	88	68.0	0	1	0	0.00	29.912 
23:55	71.8	71.8	71.8	88	68.0	0	1	0	0.00	29.912 

CoCoRaHS
IN-AL-39
A2 Web Hosting
Creative Commons License
GoDaddy
search engine by freefind advanced

loaded 2018-11-13 17:01:11 • last modified 2010-11-18 10:43:29
Privacy PolicyDisclaimer
• wx.awcolley.com is powered by PmWiki v.2002016 •
• all content (unless otherwise noted) © 2018 A W Colley